Главная страница
METAR-TAF:

METAR-TAF

Аэропорты :

Уйташ

Махачкала, Россия

широта: 42-49-01N, долгота: 047-39-08E, высота над уровнем моря: 4 м

Текущие метеонаблюдения

Эта сводка был подготовлена 40 минут назад, в 01:00 UTC
Ветер 21 Узел от северно-северо-западный
Температура 3°C
Влажность 81%
Давление 1026 hPa
Видимость 10 км и более
небольшая облачность на высоте 800 фута

METAR: URML 160100Z 34011MPS 9999 FEW008 03/00 Q1026 R14/01//70 TEMPO 1500 BR SCT003 RMK QFE769/1026

Время: 04:40 (01:40 UTC)

Прогноз

Эта сводка был подготовлена 2 часа и 40 минут назад, в 23:00 UTC
Прогноз действительный с 16-го 00 UTC до 16-го 09 UTC
Ветер 6 Узел от западный с порывами до 19 Узел
Видимость: 3000 м
Отдельные облака на высоте 300 фута
Рассеянная облачность на высоте 1100 фута
дымка
временами
С 16-го 00 UTC до 16-го 06 UTC
Видимость: 0400 м
Рассеянная облачность на высоте 200 фута
туман

TAF: URML 152300Z 1600/1609 27003G10MPS 3000 BR SCT003 BKN011 TEMPO 1600/1606 0400 FG BKN002

Метеонаблюдения и прогнозы для более 4000 аэропортов (сводки METAR и TAF).

Имеющиеся станции представлены на карте желтыми и красными точками.

Чтобы увидеть название станции, наведите на нее мышь.

Затем щелкните, чтобы увидеть метеонаблюдения и метеопрогнозы.

Управление картой: чтобы увеличить масштаб, щелкните зеленые кнопки с черным крестиком; чтобы уменьшить масштаб, щелкните зеленую кнопку с тире; для просмотра соседних карт щелкайте зеленые стрелки.


METAR-TAF: